OAL063 UHMA-UHMD
Flight info
| Callsign | OAL063 |
|---|---|
| Flight time | 1h 36m |
| Altitude | 13500 |
| Route | NALEK GIRLO PROVIDENIYABAY |
| Aircraft | C208/L-SDFGR/C |
Departure
| Time | 2026-05-08 08:23 |
|---|---|
| Airport | Ugolny Yuri Ryktheu Airport (UHMA) |
Arrival
| Time | 2026-05-08 09:59 |
|---|---|
| Airport | Provideniya Bay Airport (UHMD) |
| Time | Latitude | Longitude | Altitude | Speed | Heading |
|---|---|---|---|---|---|
| 2026-05-08 08:07 | 64.71552 | 177.73655 | 152 ft | 0 kts | 90° |
| 2026-05-08 08:13 | 64.71552 | 177.73654 | 152 ft | 0 kts | 90° |
| 2026-05-08 08:18 | 64.71552 | 177.73653 | 152 ft | 0 kts | 90° |
| 2026-05-08 08:20 | 64.71552 | 177.73659 | 152 ft | 4 kts | 92° |
| 2026-05-08 08:20 | 64.71584 | 177.73802 | 152 ft | 13 kts | 0° |
| 2026-05-08 08:20 | 64.71662 | 177.73683 | 152 ft | 18 kts | 321° |
| 2026-05-08 08:21 | 64.71791 | 177.73474 | 152 ft | 25 kts | 334° |
| 2026-05-08 08:21 | 64.71901 | 177.73350 | 152 ft | 15 kts | 335° |
| 2026-05-08 08:21 | 64.71986 | 177.73327 | 155 ft | 10 kts | 321° |
| 2026-05-08 08:21 | 64.72052 | 177.73268 | 155 ft | 7 kts | 15° |
| 2026-05-08 08:22 | 64.72097 | 177.73294 | 155 ft | 0 kts | 13° |
| 2026-05-08 08:22 | 64.72102 | 177.73297 | 155 ft | 5 kts | 12° |
| 2026-05-08 08:22 | 64.72310 | 177.73419 | 156 ft | 61 kts | 14° |
| 2026-05-08 08:22 | 64.72824 | 177.73748 | 255 ft | 90 kts | 17° |
| 2026-05-08 08:23 | 64.73388 | 177.74345 | 547 ft | 87 kts | 55° |
| 2026-05-08 08:23 | 64.73514 | 177.75587 | 901 ft | 76 kts | 106° |
| 2026-05-08 08:23 | 64.73468 | 177.76859 | 1151 ft | 80 kts | 95° |
| 2026-05-08 08:23 | 64.73427 | 177.78190 | 1410 ft | 84 kts | 96° |
| 2026-05-08 08:24 | 64.73392 | 177.79575 | 1670 ft | 87 kts | 96° |
| 2026-05-08 08:24 | 64.73357 | 177.81010 | 1929 ft | 90 kts | 96° |
| 2026-05-08 08:24 | 64.73323 | 177.82495 | 2189 ft | 92 kts | 95° |
| 2026-05-08 08:24 | 64.73291 | 177.84008 | 2443 ft | 93 kts | 95° |
| 2026-05-08 08:25 | 64.73262 | 177.85539 | 2696 ft | 95 kts | 94° |
| 2026-05-08 08:25 | 64.73233 | 177.87110 | 2951 ft | 98 kts | 94° |
| 2026-05-08 08:25 | 64.73204 | 177.88710 | 3205 ft | 98 kts | 94° |
| 2026-05-08 08:25 | 64.73172 | 177.90292 | 3455 ft | 99 kts | 94° |
| 2026-05-08 08:26 | 64.73141 | 177.91926 | 3712 ft | 100 kts | 94° |
| 2026-05-08 08:26 | 64.73111 | 177.93528 | 3950 ft | 100 kts | 94° |
| 2026-05-08 08:26 | 64.73081 | 177.95152 | 4197 ft | 100 kts | 94° |
| 2026-05-08 08:26 | 64.73050 | 177.96778 | 4443 ft | 100 kts | 94° |
| 2026-05-08 08:27 | 64.73018 | 177.98405 | 4689 ft | 101 kts | 94° |
| 2026-05-08 08:27 | 64.72987 | 178.00042 | 4937 ft | 101 kts | 94° |
| 2026-05-08 08:27 | 64.72955 | 178.01694 | 5185 ft | 102 kts | 94° |
| 2026-05-08 08:27 | 64.72923 | 178.03344 | 5432 ft | 102 kts | 94° |
| 2026-05-08 08:28 | 64.72890 | 178.04994 | 5678 ft | 101 kts | 94° |
| 2026-05-08 08:28 | 64.72858 | 178.06638 | 5924 ft | 101 kts | 93° |
| 2026-05-08 08:28 | 64.72827 | 178.08275 | 6172 ft | 101 kts | 93° |
| 2026-05-08 08:28 | 64.72795 | 178.09907 | 6412 ft | 100 kts | 93° |
| 2026-05-08 08:29 | 64.72761 | 178.11531 | 6656 ft | 100 kts | 94° |
| 2026-05-08 08:29 | 64.72729 | 178.13146 | 6901 ft | 99 kts | 94° |
| 2026-05-08 08:29 | 64.72698 | 178.14739 | 7141 ft | 97 kts | 94° |
| 2026-05-08 08:29 | 64.72666 | 178.16295 | 7385 ft | 96 kts | 94° |
| 2026-05-08 08:30 | 64.72636 | 178.17847 | 7626 ft | 95 kts | 93° |
| 2026-05-08 08:30 | 64.72602 | 178.19372 | 7863 ft | 93 kts | 94° |
| 2026-05-08 08:30 | 64.72545 | 178.22327 | 8340 ft | 88 kts | 93° |
| 2026-05-08 08:31 | 64.72521 | 178.23725 | 8567 ft | 84 kts | 93° |
| 2026-05-08 08:31 | 64.72498 | 178.25039 | 8787 ft | 77 kts | 92° |
| 2026-05-08 08:31 | 64.72472 | 178.26346 | 8896 ft | 86 kts | 95° |
| 2026-05-08 08:31 | 64.72439 | 178.27768 | 9061 ft | 90 kts | 94° |
| 2026-05-08 08:32 | 64.72402 | 178.29267 | 9221 ft | 95 kts | 94° |
| 2026-05-08 08:32 | 64.72365 | 178.30857 | 9384 ft | 101 kts | 94° |
| 2026-05-08 08:32 | 64.72325 | 178.32537 | 9536 ft | 106 kts | 94° |
| 2026-05-08 08:32 | 64.72283 | 178.34298 | 9683 ft | 111 kts | 93° |
| 2026-05-08 08:33 | 64.72244 | 178.36133 | 9829 ft | 115 kts | 94° |
| 2026-05-08 08:33 | 64.72204 | 178.38009 | 9969 ft | 118 kts | 94° |
| 2026-05-08 08:33 | 64.72161 | 178.39955 | 10107 ft | 121 kts | 94° |
| 2026-05-08 08:33 | 64.72112 | 178.42002 | 10221 ft | 131 kts | 94° |
| 2026-05-08 08:34 | 64.72059 | 178.44203 | 10352 ft | 139 kts | 94° |
| 2026-05-08 08:34 | 64.72006 | 178.46512 | 10489 ft | 145 kts | 94° |
| 2026-05-08 08:34 | 64.71959 | 178.48895 | 10624 ft | 148 kts | 93° |
| 2026-05-08 08:34 | 64.71904 | 178.51325 | 10758 ft | 151 kts | 94° |
| 2026-05-08 08:35 | 64.71847 | 178.53792 | 10890 ft | 153 kts | 94° |
| 2026-05-08 08:35 | 64.71788 | 178.56282 | 11018 ft | 154 kts | 94° |
| 2026-05-08 08:35 | 64.71729 | 178.58789 | 11146 ft | 155 kts | 94° |
| 2026-05-08 08:35 | 64.71669 | 178.61312 | 11273 ft | 156 kts | 94° |
| 2026-05-08 08:36 | 64.71610 | 178.63844 | 11399 ft | 156 kts | 94° |
| 2026-05-08 08:36 | 64.71550 | 178.66382 | 11524 ft | 157 kts | 94° |
| 2026-05-08 08:36 | 64.71488 | 178.68926 | 11649 ft | 157 kts | 94° |
| 2026-05-08 08:36 | 64.71427 | 178.71475 | 11774 ft | 157 kts | 94° |
| 2026-05-08 08:37 | 64.71364 | 178.74032 | 11898 ft | 157 kts | 94° |
| 2026-05-08 08:37 | 64.71302 | 178.76587 | 12022 ft | 157 kts | 94° |
| 2026-05-08 08:37 | 64.71260 | 178.78283 | 12104 ft | 157 kts | 94° |
| 2026-05-08 08:37 | 64.71197 | 178.80844 | 12228 ft | 158 kts | 94° |
| 2026-05-08 08:38 | 64.71132 | 178.83403 | 12351 ft | 158 kts | 94° |
| 2026-05-08 08:38 | 64.71047 | 178.86799 | 12514 ft | 158 kts | 94° |
| 2026-05-08 08:38 | 64.71003 | 178.88533 | 12598 ft | 158 kts | 94° |
| 2026-05-08 08:38 | 64.70938 | 178.91060 | 12718 ft | 158 kts | 94° |
| 2026-05-08 08:39 | 64.70872 | 178.93620 | 12844 ft | 157 kts | 94° |
| 2026-05-08 08:39 | 64.70806 | 178.96179 | 12967 ft | 158 kts | 94° |
| 2026-05-08 08:39 | 64.70740 | 178.98732 | 13090 ft | 158 kts | 94° |
| 2026-05-08 08:39 | 64.70673 | 179.01294 | 13217 ft | 158 kts | 94° |
| 2026-05-08 08:40 | 64.70604 | 179.03882 | 13340 ft | 161 kts | 94° |
| 2026-05-08 08:40 | 64.70533 | 179.06525 | 13471 ft | 164 kts | 94° |
| 2026-05-08 08:40 | 64.70453 | 179.09256 | 13502 ft | 172 kts | 94° |
| 2026-05-08 08:40 | 64.70384 | 179.12098 | 13510 ft | 178 kts | 94° |
| 2026-05-08 08:41 | 64.70311 | 179.15035 | 13511 ft | 183 kts | 94° |
| 2026-05-08 08:41 | 64.70223 | 179.18017 | 13510 ft | 185 kts | 94° |
| 2026-05-08 08:41 | 64.70140 | 179.21042 | 13508 ft | 187 kts | 93° |
| 2026-05-08 08:41 | 64.70062 | 179.24090 | 13509 ft | 188 kts | 94° |
| 2026-05-08 08:42 | 64.69973 | 179.27144 | 13509 ft | 189 kts | 94° |
| 2026-05-08 08:42 | 64.69889 | 179.30202 | 13507 ft | 189 kts | 94° |
| 2026-05-08 08:42 | 64.69805 | 179.33269 | 13509 ft | 189 kts | 94° |
| 2026-05-08 08:42 | 64.69719 | 179.36337 | 13509 ft | 189 kts | 94° |
| 2026-05-08 08:43 | 64.69635 | 179.39409 | 13509 ft | 189 kts | 94° |
| 2026-05-08 08:43 | 64.69546 | 179.42479 | 13509 ft | 190 kts | 94° |
| 2026-05-08 08:43 | 64.69448 | 179.45522 | 13508 ft | 190 kts | 94° |
| 2026-05-08 08:43 | 64.69348 | 179.48594 | 13508 ft | 190 kts | 94° |
| 2026-05-08 08:44 | 64.69251 | 179.51671 | 13508 ft | 189 kts | 94° |
| 2026-05-08 08:44 | 64.69155 | 179.54737 | 13506 ft | 189 kts | 94° |
| 2026-05-08 08:44 | 64.69056 | 179.57805 | 13505 ft | 189 kts | 94° |
| 2026-05-08 08:44 | 64.68954 | 179.60868 | 13504 ft | 189 kts | 94° |
| 2026-05-08 08:45 | 64.68860 | 179.63935 | 13502 ft | 189 kts | 94° |
| 2026-05-08 08:45 | 64.68768 | 179.67007 | 13501 ft | 189 kts | 94° |
| 2026-05-08 08:45 | 64.68665 | 179.70077 | 13499 ft | 189 kts | 94° |
| 2026-05-08 08:45 | 64.68562 | 179.73143 | 13498 ft | 189 kts | 94° |
| 2026-05-08 08:46 | 64.68462 | 179.76214 | 13496 ft | 189 kts | 94° |
| 2026-05-08 08:46 | 64.68359 | 179.79277 | 13495 ft | 189 kts | 95° |
| 2026-05-08 08:46 | 64.68255 | 179.82343 | 13493 ft | 189 kts | 94° |
| 2026-05-08 08:46 | 64.68146 | 179.85400 | 13493 ft | 189 kts | 95° |
| 2026-05-08 08:47 | 64.68044 | 179.88458 | 13491 ft | 189 kts | 94° |
| 2026-05-08 08:47 | 64.67943 | 179.91527 | 13492 ft | 190 kts | 95° |
| 2026-05-08 08:47 | 64.67839 | 179.94593 | 13492 ft | 189 kts | 94° |
| 2026-05-08 08:47 | 64.67734 | 179.97663 | 13490 ft | 189 kts | 95° |
| 2026-05-08 08:48 | 64.67627 | -179.99275 | 13491 ft | 189 kts | 95° |
| 2026-05-08 08:48 | 64.67517 | -179.96221 | 13514 ft | 188 kts | 95° |
| 2026-05-08 08:48 | 64.67408 | -179.93191 | 13550 ft | 187 kts | 94° |
| 2026-05-08 08:48 | 64.67306 | -179.90175 | 13590 ft | 186 kts | 94° |
| 2026-05-08 08:49 | 64.67205 | -179.87157 | 13594 ft | 187 kts | 94° |
| 2026-05-08 08:49 | 64.67097 | -179.84162 | 13595 ft | 188 kts | 94° |
| 2026-05-08 08:49 | 64.66985 | -179.81082 | 13596 ft | 189 kts | 94° |
| 2026-05-08 08:49 | 64.66876 | -179.78066 | 13597 ft | 189 kts | 94° |
| 2026-05-08 08:50 | 64.66766 | -179.75008 | 13597 ft | 189 kts | 94° |
| 2026-05-08 08:50 | 64.66654 | -179.71947 | 13597 ft | 190 kts | 94° |
| 2026-05-08 08:50 | 64.66541 | -179.68878 | 13597 ft | 189 kts | 95° |
| 2026-05-08 08:50 | 64.66426 | -179.65807 | 13598 ft | 190 kts | 95° |
| 2026-05-08 08:51 | 64.66312 | -179.62736 | 13598 ft | 189 kts | 95° |
| 2026-05-08 08:51 | 64.66196 | -179.59672 | 13598 ft | 189 kts | 95° |
| 2026-05-08 08:51 | 64.66080 | -179.56607 | 13596 ft | 190 kts | 95° |
| 2026-05-08 08:51 | 64.65964 | -179.53542 | 13595 ft | 190 kts | 95° |
| 2026-05-08 08:52 | 64.65848 | -179.50476 | 13593 ft | 190 kts | 95° |
| 2026-05-08 08:52 | 64.65731 | -179.47405 | 13592 ft | 190 kts | 95° |
| 2026-05-08 08:52 | 64.65614 | -179.44337 | 13591 ft | 190 kts | 95° |
| 2026-05-08 08:52 | 64.65497 | -179.41310 | 13592 ft | 190 kts | 95° |
| 2026-05-08 08:53 | 64.65378 | -179.38243 | 13591 ft | 190 kts | 95° |
| 2026-05-08 08:53 | 64.65258 | -179.35180 | 13591 ft | 190 kts | 95° |
| 2026-05-08 08:53 | 64.65138 | -179.32118 | 13596 ft | 190 kts | 95° |
| 2026-05-08 08:53 | 64.65013 | -179.29052 | 13594 ft | 189 kts | 95° |
| 2026-05-08 08:54 | 64.64891 | -179.25991 | 13591 ft | 189 kts | 95° |
| 2026-05-08 08:54 | 64.64771 | -179.22933 | 13591 ft | 189 kts | 95° |
| 2026-05-08 08:54 | 64.64651 | -179.19874 | 13597 ft | 189 kts | 95° |
| 2026-05-08 08:54 | 64.64526 | -179.16810 | 13592 ft | 189 kts | 95° |
| 2026-05-08 08:55 | 64.64402 | -179.13747 | 13592 ft | 189 kts | 95° |
| 2026-05-08 08:55 | 64.64278 | -179.10685 | 13591 ft | 190 kts | 95° |
| 2026-05-08 08:55 | 64.64157 | -179.07700 | 13591 ft | 190 kts | 95° |
| 2026-05-08 08:55 | 64.64030 | -179.04626 | 13591 ft | 190 kts | 95° |
| 2026-05-08 08:56 | 64.63902 | -179.01557 | 13591 ft | 190 kts | 95° |
| 2026-05-08 08:56 | 64.63773 | -178.98490 | 13593 ft | 190 kts | 95° |
| 2026-05-08 08:56 | 64.63645 | -178.95424 | 13591 ft | 190 kts | 95° |
| 2026-05-08 08:56 | 64.63517 | -178.92357 | 13592 ft | 190 kts | 95° |
| 2026-05-08 08:57 | 64.63389 | -178.89285 | 13591 ft | 190 kts | 95° |
| 2026-05-08 08:57 | 64.63261 | -178.86252 | 13592 ft | 190 kts | 95° |
| 2026-05-08 08:57 | 64.63130 | -178.83185 | 13594 ft | 190 kts | 95° |
| 2026-05-08 08:57 | 64.62998 | -178.80120 | 13591 ft | 190 kts | 95° |
| 2026-05-08 08:58 | 64.62866 | -178.77056 | 13595 ft | 190 kts | 95° |
| 2026-05-08 08:58 | 64.62734 | -178.73993 | 13593 ft | 189 kts | 95° |
| 2026-05-08 08:58 | 64.62600 | -178.70941 | 13591 ft | 189 kts | 95° |
| 2026-05-08 08:58 | 64.62467 | -178.67877 | 13593 ft | 189 kts | 95° |
| 2026-05-08 08:59 | 64.62333 | -178.64822 | 13593 ft | 190 kts | 95° |
| 2026-05-08 08:59 | 64.62197 | -178.61762 | 13592 ft | 190 kts | 95° |
| 2026-05-08 08:59 | 64.62062 | -178.58700 | 13591 ft | 190 kts | 95° |
| 2026-05-08 08:59 | 64.61928 | -178.55681 | 13592 ft | 190 kts | 95° |
| 2026-05-08 09:00 | 64.61791 | -178.52623 | 13593 ft | 190 kts | 95° |
| 2026-05-08 09:00 | 64.61654 | -178.49565 | 13592 ft | 189 kts | 95° |
| 2026-05-08 09:00 | 64.61516 | -178.46509 | 13591 ft | 189 kts | 95° |
| 2026-05-08 09:00 | 64.61377 | -178.43456 | 13591 ft | 190 kts | 95° |
| 2026-05-08 09:01 | 64.61238 | -178.40401 | 13593 ft | 190 kts | 95° |
| 2026-05-08 09:01 | 64.61099 | -178.37343 | 13591 ft | 190 kts | 95° |
| 2026-05-08 09:01 | 64.60957 | -178.34284 | 13591 ft | 190 kts | 95° |
| 2026-05-08 09:01 | 64.60816 | -178.31228 | 13594 ft | 190 kts | 95° |
| 2026-05-08 09:02 | 64.60674 | -178.28171 | 13592 ft | 190 kts | 95° |
| 2026-05-08 09:02 | 64.60532 | -178.25113 | 13591 ft | 190 kts | 95° |
| 2026-05-08 09:02 | 64.60389 | -178.22059 | 13591 ft | 190 kts | 95° |
| 2026-05-08 09:02 | 64.60247 | -178.19041 | 13591 ft | 190 kts | 95° |
| 2026-05-08 09:03 | 64.60103 | -178.15993 | 13591 ft | 189 kts | 95° |
| 2026-05-08 09:03 | 64.59957 | -178.12946 | 13593 ft | 190 kts | 95° |
| 2026-05-08 09:03 | 64.59812 | -178.09889 | 13592 ft | 190 kts | 95° |
| 2026-05-08 09:03 | 64.59667 | -178.06839 | 13595 ft | 190 kts | 95° |
| 2026-05-08 09:04 | 64.59520 | -178.03791 | 13593 ft | 189 kts | 95° |
| 2026-05-08 09:04 | 64.59372 | -178.00742 | 13592 ft | 189 kts | 95° |
| 2026-05-08 09:04 | 64.59224 | -177.97698 | 13591 ft | 190 kts | 95° |
| 2026-05-08 09:04 | 64.59076 | -177.94643 | 13591 ft | 190 kts | 95° |
| 2026-05-08 09:05 | 64.58926 | -177.91590 | 13592 ft | 189 kts | 95° |
| 2026-05-08 09:05 | 64.58776 | -177.88535 | 13591 ft | 190 kts | 95° |
| 2026-05-08 09:05 | 64.58626 | -177.85486 | 13593 ft | 190 kts | 95° |
| 2026-05-08 09:05 | 64.58474 | -177.82428 | 13592 ft | 190 kts | 95° |
| 2026-05-08 09:06 | 64.58322 | -177.79377 | 13594 ft | 190 kts | 95° |
| 2026-05-08 09:06 | 64.58172 | -177.76366 | 13592 ft | 190 kts | 95° |
| 2026-05-08 09:06 | 64.58018 | -177.73323 | 13591 ft | 189 kts | 95° |
| 2026-05-08 09:06 | 64.57864 | -177.70271 | 13593 ft | 189 kts | 95° |
| 2026-05-08 09:07 | 64.57713 | -177.67226 | 13592 ft | 189 kts | 95° |
| 2026-05-08 09:07 | 64.57559 | -177.64189 | 13591 ft | 189 kts | 95° |
| 2026-05-08 09:07 | 64.57402 | -177.61144 | 13593 ft | 189 kts | 95° |
| 2026-05-08 09:07 | 64.57245 | -177.58099 | 13595 ft | 189 kts | 95° |
| 2026-05-08 09:08 | 64.57088 | -177.55054 | 13588 ft | 189 kts | 95° |
| 2026-05-08 09:08 | 64.56930 | -177.52015 | 13591 ft | 189 kts | 95° |
| 2026-05-08 09:08 | 64.56772 | -177.48972 | 13586 ft | 189 kts | 95° |
| 2026-05-08 09:08 | 64.56614 | -177.45927 | 13588 ft | 189 kts | 95° |
| 2026-05-08 09:09 | 64.56454 | -177.42885 | 13588 ft | 189 kts | 95° |
| 2026-05-08 09:09 | 64.56296 | -177.39887 | 13590 ft | 189 kts | 95° |
| 2026-05-08 09:09 | 64.56136 | -177.36843 | 13584 ft | 189 kts | 95° |
| 2026-05-08 09:09 | 64.55975 | -177.33800 | 13582 ft | 189 kts | 95° |
| 2026-05-08 09:10 | 64.55814 | -177.30758 | 13581 ft | 189 kts | 95° |
| 2026-05-08 09:10 | 64.55652 | -177.27714 | 13582 ft | 189 kts | 95° |
| 2026-05-08 09:10 | 64.55488 | -177.24674 | 13586 ft | 189 kts | 95° |
| 2026-05-08 09:10 | 64.55324 | -177.21631 | 13582 ft | 190 kts | 95° |
| 2026-05-08 09:11 | 64.55159 | -177.18588 | 13589 ft | 190 kts | 95° |
| 2026-05-08 09:11 | 64.54995 | -177.15547 | 13581 ft | 190 kts | 95° |
| 2026-05-08 09:11 | 64.54829 | -177.12506 | 13586 ft | 190 kts | 95° |
| 2026-05-08 09:11 | 64.54663 | -177.09466 | 13581 ft | 190 kts | 95° |
| 2026-05-08 09:12 | 64.54496 | -177.06426 | 13585 ft | 190 kts | 95° |
| 2026-05-08 09:12 | 64.54328 | -177.03379 | 13581 ft | 190 kts | 95° |
| 2026-05-08 09:12 | 64.54162 | -177.00375 | 13583 ft | 190 kts | 95° |
| 2026-05-08 09:12 | 64.53993 | -176.97342 | 13586 ft | 190 kts | 95° |
| 2026-05-08 09:13 | 64.53823 | -176.94299 | 13581 ft | 190 kts | 95° |
| 2026-05-08 09:13 | 64.53654 | -176.91260 | 13581 ft | 190 kts | 95° |
| 2026-05-08 09:13 | 64.53483 | -176.88221 | 13581 ft | 190 kts | 96° |
| 2026-05-08 09:13 | 64.53312 | -176.85180 | 13581 ft | 190 kts | 95° |
| 2026-05-08 09:14 | 64.53140 | -176.82137 | 13581 ft | 190 kts | 95° |
| 2026-05-08 09:14 | 64.52968 | -176.79099 | 13581 ft | 190 kts | 95° |
| 2026-05-08 09:14 | 64.52794 | -176.76062 | 13585 ft | 190 kts | 95° |
| 2026-05-08 09:14 | 64.52620 | -176.73022 | 13581 ft | 190 kts | 95° |
| 2026-05-08 09:15 | 64.52445 | -176.69980 | 13581 ft | 190 kts | 95° |
| 2026-05-08 09:15 | 64.52271 | -176.66941 | 13582 ft | 190 kts | 96° |
| 2026-05-08 09:15 | 64.52094 | -176.63899 | 13586 ft | 190 kts | 96° |
| 2026-05-08 09:15 | 64.51918 | -176.60863 | 13586 ft | 190 kts | 95° |
| 2026-05-08 09:16 | 64.51741 | -176.57829 | 13583 ft | 189 kts | 96° |
| 2026-05-08 09:16 | 64.51564 | -176.54803 | 13587 ft | 190 kts | 95° |
| 2026-05-08 09:16 | 64.51386 | -176.51767 | 13586 ft | 190 kts | 96° |
| 2026-05-08 09:16 | 64.51208 | -176.48735 | 13582 ft | 190 kts | 96° |
| 2026-05-08 09:17 | 64.51028 | -176.45705 | 13589 ft | 190 kts | 96° |
| 2026-05-08 09:17 | 64.50848 | -176.42672 | 13581 ft | 190 kts | 96° |
| 2026-05-08 09:17 | 64.50667 | -176.39644 | 13586 ft | 189 kts | 96° |
| 2026-05-08 09:17 | 64.50486 | -176.36613 | 13581 ft | 189 kts | 96° |
| 2026-05-08 09:18 | 64.50306 | -176.33586 | 13584 ft | 190 kts | 96° |
| 2026-05-08 09:18 | 64.50122 | -176.30555 | 13581 ft | 189 kts | 96° |
| 2026-05-08 09:18 | 64.49942 | -176.27567 | 13583 ft | 189 kts | 96° |
| 2026-05-08 09:18 | 64.49759 | -176.24540 | 13584 ft | 189 kts | 96° |
| 2026-05-08 09:19 | 64.49575 | -176.21522 | 13581 ft | 189 kts | 96° |
| 2026-05-08 09:19 | 64.49391 | -176.18495 | 13581 ft | 189 kts | 96° |
| 2026-05-08 09:19 | 64.49205 | -176.15470 | 13581 ft | 189 kts | 96° |
| 2026-05-08 09:19 | 64.49017 | -176.12433 | 13512 ft | 193 kts | 96° |
| 2026-05-08 09:20 | 64.48830 | -176.09308 | 13366 ft | 198 kts | 95° |
| 2026-05-08 09:20 | 64.48638 | -176.06155 | 13230 ft | 197 kts | 96° |
| 2026-05-08 09:20 | 64.48442 | -176.03005 | 13071 ft | 197 kts | 96° |
| 2026-05-08 09:20 | 64.48246 | -175.99885 | 12919 ft | 194 kts | 96° |
| 2026-05-08 09:21 | 64.48052 | -175.96813 | 12764 ft | 191 kts | 96° |
| 2026-05-08 09:21 | 64.47860 | -175.93785 | 12609 ft | 189 kts | 96° |
| 2026-05-08 09:22 | 64.46722 | -175.75871 | 11691 ft | 186 kts | 96° |
| 2026-05-08 09:23 | 64.46532 | -175.72903 | 11547 ft | 186 kts | 96° |
| 2026-05-08 09:23 | 64.46339 | -175.69940 | 11395 ft | 186 kts | 96° |
| 2026-05-08 09:23 | 64.46149 | -175.66977 | 11244 ft | 186 kts | 96° |
| 2026-05-08 09:23 | 64.45958 | -175.64016 | 11094 ft | 186 kts | 96° |
| 2026-05-08 09:24 | 64.45766 | -175.61060 | 10938 ft | 186 kts | 97° |
| 2026-05-08 09:24 | 64.45572 | -175.58100 | 10797 ft | 186 kts | 96° |
| 2026-05-08 09:24 | 64.45379 | -175.55146 | 10642 ft | 186 kts | 97° |
| 2026-05-08 09:24 | 64.45183 | -175.52189 | 10491 ft | 186 kts | 97° |
| 2026-05-08 09:25 | 64.44988 | -175.49237 | 10341 ft | 185 kts | 97° |
| 2026-05-08 09:25 | 64.44796 | -175.46285 | 10191 ft | 185 kts | 97° |
| 2026-05-08 09:25 | 64.44600 | -175.43384 | 10096 ft | 183 kts | 97° |
| 2026-05-08 09:25 | 64.44407 | -175.40516 | 10089 ft | 178 kts | 98° |
| 2026-05-08 09:26 | 64.44213 | -175.37720 | 10087 ft | 175 kts | 98° |
| 2026-05-08 09:26 | 64.44029 | -175.34951 | 10085 ft | 173 kts | 97° |
| 2026-05-08 09:26 | 64.43847 | -175.32203 | 10083 ft | 172 kts | 97° |
| 2026-05-08 09:26 | 64.43661 | -175.29473 | 10081 ft | 172 kts | 98° |
| 2026-05-08 09:27 | 64.43477 | -175.26747 | 10081 ft | 171 kts | 97° |
| 2026-05-08 09:27 | 64.43293 | -175.24030 | 10085 ft | 171 kts | 97° |
| 2026-05-08 09:27 | 64.43111 | -175.21314 | 10082 ft | 171 kts | 97° |
| 2026-05-08 09:27 | 64.42927 | -175.18598 | 10081 ft | 171 kts | 98° |
| 2026-05-08 09:28 | 64.42738 | -175.15851 | 10001 ft | 175 kts | 97° |
| 2026-05-08 09:28 | 64.42613 | -175.13997 | 9937 ft | 177 kts | 97° |
| 2026-05-08 09:28 | 64.42418 | -175.11131 | 9839 ft | 179 kts | 98° |
| 2026-05-08 09:28 | 64.42226 | -175.08325 | 9743 ft | 180 kts | 98° |
| 2026-05-08 09:29 | 64.42080 | -175.05452 | 9642 ft | 180 kts | 93° |
| 2026-05-08 09:29 | 64.42007 | -175.02574 | 9599 ft | 177 kts | 92° |
| 2026-05-08 09:29 | 64.41921 | -174.99756 | 9596 ft | 174 kts | 93° |
| 2026-05-08 09:29 | 64.41830 | -174.96976 | 9591 ft | 173 kts | 93° |
| 2026-05-08 09:30 | 64.41738 | -174.94214 | 9587 ft | 172 kts | 93° |
| 2026-05-08 09:30 | 64.41646 | -174.91466 | 9584 ft | 171 kts | 93° |
| 2026-05-08 09:30 | 64.41555 | -174.88719 | 9584 ft | 171 kts | 94° |
| 2026-05-08 09:30 | 64.41463 | -174.85983 | 9582 ft | 170 kts | 94° |
| 2026-05-08 09:31 | 64.41371 | -174.83257 | 9582 ft | 170 kts | 93° |
| 2026-05-08 09:31 | 64.41279 | -174.80526 | 9583 ft | 170 kts | 94° |
| 2026-05-08 09:31 | 64.41187 | -174.77798 | 9583 ft | 170 kts | 94° |
| 2026-05-08 09:31 | 64.41093 | -174.75069 | 9582 ft | 170 kts | 94° |
| 2026-05-08 09:32 | 64.41000 | -174.72335 | 9583 ft | 170 kts | 94° |
| 2026-05-08 09:32 | 64.40906 | -174.69603 | 9582 ft | 170 kts | 94° |
| 2026-05-08 09:32 | 64.40812 | -174.66872 | 9582 ft | 171 kts | 94° |
| 2026-05-08 09:32 | 64.40716 | -174.64140 | 9583 ft | 170 kts | 94° |
| 2026-05-08 09:33 | 64.40620 | -174.61410 | 9582 ft | 170 kts | 94° |
| 2026-05-08 09:33 | 64.40524 | -174.58679 | 9583 ft | 170 kts | 93° |
| 2026-05-08 09:33 | 64.40429 | -174.55952 | 9582 ft | 170 kts | 94° |
| 2026-05-08 09:33 | 64.40331 | -174.53223 | 9583 ft | 170 kts | 94° |
| 2026-05-08 09:34 | 64.40234 | -174.50500 | 9583 ft | 170 kts | 94° |
| 2026-05-08 09:34 | 64.40136 | -174.47774 | 9582 ft | 170 kts | 94° |
| 2026-05-08 09:34 | 64.40036 | -174.45052 | 9583 ft | 170 kts | 94° |
| 2026-05-08 09:34 | 64.39938 | -174.42325 | 9584 ft | 170 kts | 94° |
| 2026-05-08 09:35 | 64.39837 | -174.39600 | 9583 ft | 170 kts | 94° |
| 2026-05-08 09:35 | 64.39735 | -174.36871 | 9582 ft | 170 kts | 94° |
| 2026-05-08 09:35 | 64.39634 | -174.34150 | 9583 ft | 170 kts | 94° |
| 2026-05-08 09:35 | 64.39535 | -174.31423 | 9584 ft | 170 kts | 94° |
| 2026-05-08 09:36 | 64.39437 | -174.28734 | 9583 ft | 170 kts | 94° |
| 2026-05-08 09:36 | 64.39335 | -174.26012 | 9584 ft | 170 kts | 94° |
| 2026-05-08 09:36 | 64.39232 | -174.23291 | 9582 ft | 170 kts | 94° |
| 2026-05-08 09:36 | 64.39126 | -174.20572 | 9583 ft | 170 kts | 94° |
| 2026-05-08 09:37 | 64.39020 | -174.17810 | 9583 ft | 170 kts | 94° |
| 2026-05-08 09:37 | 64.38920 | -174.15122 | 9582 ft | 170 kts | 94° |
| 2026-05-08 09:37 | 64.38818 | -174.12396 | 9583 ft | 170 kts | 94° |
| 2026-05-08 09:37 | 64.38711 | -174.09669 | 9582 ft | 170 kts | 94° |
| 2026-05-08 09:38 | 64.38607 | -174.06941 | 9584 ft | 170 kts | 94° |
| 2026-05-08 09:38 | 64.38500 | -174.04222 | 9582 ft | 170 kts | 94° |
| 2026-05-08 09:38 | 64.38394 | -174.01528 | 9584 ft | 170 kts | 94° |
| 2026-05-08 09:38 | 64.38286 | -173.98804 | 9582 ft | 170 kts | 94° |
| 2026-05-08 09:39 | 64.38179 | -173.96083 | 9584 ft | 170 kts | 94° |
| 2026-05-08 09:39 | 64.38070 | -173.93355 | 9583 ft | 170 kts | 94° |
| 2026-05-08 09:39 | 64.37961 | -173.90630 | 9584 ft | 170 kts | 94° |
| 2026-05-08 09:39 | 64.37850 | -173.87912 | 9582 ft | 170 kts | 94° |
| 2026-05-08 09:40 | 64.37927 | -173.85225 | 9583 ft | 168 kts | 71° |
| 2026-05-08 09:40 | 64.38496 | -173.82902 | 9583 ft | 166 kts | 48° |
| 2026-05-08 09:40 | 64.39337 | -173.81069 | 9585 ft | 166 kts | 43° |
| 2026-05-08 09:40 | 64.40177 | -173.79230 | 9586 ft | 166 kts | 44° |
| 2026-05-08 09:41 | 64.41015 | -173.77376 | 9585 ft | 167 kts | 44° |
| 2026-05-08 09:41 | 64.41857 | -173.75513 | 9520 ft | 171 kts | 44° |
| 2026-05-08 09:41 | 64.42736 | -173.73580 | 9349 ft | 177 kts | 43° |
| 2026-05-08 09:41 | 64.43637 | -173.71601 | 9181 ft | 180 kts | 44° |
| 2026-05-08 09:42 | 64.44546 | -173.69593 | 9012 ft | 182 kts | 44° |
| 2026-05-08 09:42 | 64.45463 | -173.67560 | 8839 ft | 183 kts | 44° |
| 2026-05-08 09:42 | 64.46374 | -173.65540 | 8665 ft | 179 kts | 44° |
| 2026-05-08 09:42 | 64.47263 | -173.63556 | 8485 ft | 176 kts | 44° |
| 2026-05-08 09:43 | 64.48140 | -173.61598 | 8306 ft | 174 kts | 44° |
| 2026-05-08 09:43 | 64.48986 | -173.59712 | 8135 ft | 174 kts | 44° |
| 2026-05-08 09:43 | 64.49856 | -173.57770 | 7961 ft | 174 kts | 44° |
| 2026-05-08 09:43 | 64.50726 | -173.55833 | 7779 ft | 173 kts | 44° |
| 2026-05-08 09:44 | 64.51589 | -173.53903 | 7605 ft | 172 kts | 44° |
| 2026-05-08 09:44 | 64.52452 | -173.51976 | 7430 ft | 172 kts | 44° |
| 2026-05-08 09:44 | 64.53311 | -173.50052 | 7252 ft | 172 kts | 44° |
| 2026-05-08 09:44 | 64.54169 | -173.48131 | 7078 ft | 171 kts | 44° |
| 2026-05-08 09:45 | 64.55026 | -173.46208 | 6902 ft | 171 kts | 44° |
| 2026-05-08 09:45 | 64.55875 | -173.44308 | 6670 ft | 174 kts | 44° |
| 2026-05-08 09:45 | 64.56750 | -173.42351 | 6421 ft | 175 kts | 44° |
| 2026-05-08 09:45 | 64.57626 | -173.40384 | 6177 ft | 175 kts | 44° |
| 2026-05-08 09:46 | 64.58506 | -173.38409 | 5927 ft | 176 kts | 44° |
| 2026-05-08 09:46 | 64.59386 | -173.36431 | 5678 ft | 176 kts | 44° |
| 2026-05-08 09:46 | 64.60247 | -173.34485 | 5601 ft | 167 kts | 45° |
| 2026-05-08 09:46 | 64.61058 | -173.32629 | 5584 ft | 160 kts | 45° |
| 2026-05-08 09:47 | 64.61847 | -173.30834 | 5583 ft | 157 kts | 45° |
| 2026-05-08 09:47 | 64.62626 | -173.29066 | 5583 ft | 155 kts | 45° |
| 2026-05-08 09:47 | 64.63398 | -173.27316 | 5582 ft | 154 kts | 45° |
| 2026-05-08 09:47 | 64.63971 | -173.25236 | 5587 ft | 155 kts | 74° |
| 2026-05-08 09:48 | 64.64029 | -173.22749 | 5601 ft | 156 kts | 101° |
| 2026-05-08 09:48 | 64.63654 | -173.20391 | 5599 ft | 155 kts | 112° |
| 2026-05-08 09:48 | 64.63254 | -173.18050 | 5596 ft | 155 kts | 111° |
| 2026-05-08 09:48 | 64.62859 | -173.15703 | 5602 ft | 156 kts | 111° |
| 2026-05-08 09:49 | 64.62459 | -173.13350 | 5596 ft | 156 kts | 111° |
| 2026-05-08 09:49 | 64.62057 | -173.10998 | 5601 ft | 156 kts | 111° |
| 2026-05-08 09:49 | 64.61653 | -173.08632 | 5456 ft | 163 kts | 111° |
| 2026-05-08 09:49 | 64.61034 | -173.06390 | 5254 ft | 171 kts | 138° |
| 2026-05-08 09:50 | 64.59975 | -173.05081 | 4992 ft | 176 kts | 165° |
| 2026-05-08 09:50 | 64.58755 | -173.05117 | 4727 ft | 178 kts | 195° |
| 2026-05-08 09:50 | 64.57598 | -173.06168 | 4463 ft | 178 kts | 202° |
| 2026-05-08 09:50 | 64.56458 | -173.07236 | 4190 ft | 175 kts | 201° |
| 2026-05-08 09:51 | 64.55332 | -173.08282 | 3917 ft | 174 kts | 201° |
| 2026-05-08 09:51 | 64.54214 | -173.09317 | 3696 ft | 170 kts | 202° |
| 2026-05-08 09:51 | 64.53162 | -173.10305 | 3687 ft | 159 kts | 202° |
| 2026-05-08 09:51 | 64.52140 | -173.11268 | 3561 ft | 161 kts | 202° |
| 2026-05-08 09:52 | 64.51083 | -173.12235 | 3322 ft | 166 kts | 201° |
| 2026-05-08 09:52 | 64.50026 | -173.13200 | 3043 ft | 153 kts | 202° |
| 2026-05-08 09:52 | 64.49098 | -173.14076 | 2743 ft | 137 kts | 202° |
| 2026-05-08 09:52 | 64.48242 | -173.14865 | 2446 ft | 129 kts | 202° |
| 2026-05-08 09:53 | 64.47442 | -173.15595 | 2246 ft | 120 kts | 202° |
| 2026-05-08 09:53 | 64.46696 | -173.16277 | 2105 ft | 111 kts | 202° |
| 2026-05-08 09:53 | 64.46001 | -173.16916 | 1978 ft | 105 kts | 202° |
| 2026-05-08 09:53 | 64.45334 | -173.17528 | 1849 ft | 102 kts | 202° |
| 2026-05-08 09:54 | 64.44681 | -173.18125 | 1729 ft | 100 kts | 202° |
| 2026-05-08 09:54 | 64.44069 | -173.18690 | 1632 ft | 94 kts | 202° |
| 2026-05-08 09:54 | 64.43490 | -173.19220 | 1562 ft | 87 kts | 202° |
| 2026-05-08 09:54 | 64.42934 | -173.19727 | 1468 ft | 85 kts | 202° |
| 2026-05-08 09:55 | 64.42386 | -173.20229 | 1374 ft | 84 kts | 202° |
| 2026-05-08 09:55 | 64.41838 | -173.20730 | 1277 ft | 85 kts | 202° |
| 2026-05-08 09:55 | 64.41310 | -173.21211 | 1266 ft | 78 kts | 202° |
| 2026-05-08 09:55 | 64.40825 | -173.21652 | 1258 ft | 76 kts | 202° |
| 2026-05-08 09:56 | 64.40340 | -173.22090 | 1262 ft | 74 kts | 202° |
| 2026-05-08 09:56 | 64.39853 | -173.22534 | 1264 ft | 78 kts | 203° |
| 2026-05-08 09:56 | 64.39328 | -173.23026 | 1079 ft | 87 kts | 202° |
| 2026-05-08 09:56 | 64.38758 | -173.23508 | 748 ft | 78 kts | 198° |
| 2026-05-08 09:57 | 64.38411 | -173.22186 | 768 ft | 63 kts | 62° |
| 2026-05-08 09:57 | 64.38735 | -173.21420 | 869 ft | 72 kts | 46° |
| 2026-05-08 09:57 | 64.39171 | -173.20721 | 924 ft | 80 kts | 31° |
| 2026-05-08 09:58 | 64.39714 | -173.20448 | 959 ft | 82 kts | 358° |
| 2026-05-08 09:58 | 64.40107 | -173.21265 | 963 ft | 81 kts | 280° |
| 2026-05-08 09:58 | 64.39812 | -173.22410 | 727 ft | 88 kts | 218° |
| 2026-05-08 09:58 | 64.39252 | -173.23025 | 368 ft | 92 kts | 202° |
| 2026-05-08 09:59 | 64.38685 | -173.23553 | 96 ft | 77 kts | 203° |
| 2026-05-08 09:59 | 64.38268 | -173.23929 | 64 ft | 38 kts | 200° |
| 2026-05-08 09:59 | 64.38124 | -173.24049 | 63 ft | 11 kts | 198° |
| 2026-05-08 09:59 | 64.38109 | -173.24007 | 63 ft | 8 kts | 19° |
| 2026-05-08 10:00 | 64.38189 | -173.23955 | 62 ft | 14 kts | 20° |
| 2026-05-08 10:00 | 64.38319 | -173.23836 | 69 ft | 26 kts | 19° |
| 2026-05-08 10:00 | 64.38384 | -173.23769 | 69 ft | 12 kts | 22° |
| 2026-05-08 10:00 | 64.38489 | -173.23708 | 70 ft | 21 kts | 13° |
| 2026-05-08 10:01 | 64.38619 | -173.23569 | 83 ft | 23 kts | 32° |
| 2026-05-08 10:01 | 64.38673 | -173.23333 | 84 ft | 18 kts | 132° |
| 2026-05-08 10:01 | 64.38538 | -173.23255 | 81 ft | 21 kts | 199° |
| 2026-05-08 10:01 | 64.38426 | -173.23261 | 72 ft | 15 kts | 137° |
| 2026-05-08 10:02 | 64.38398 | -173.23138 | 76 ft | 0 kts | 121° |